Time;durP1;ratioP1;P1;durP2;ratioP2;P2;SDS_P1;SDS_P2;PMS_P1;PMS_P2;Temp;Humidity;BMP_temperature;BMP_pressure;BME280_temperature;BME280_humidity;BME280_pressure;Samples;Min_cycle;Max_cycle;Signal;HPM_P1;HPM_P2
2023/09/19 00:00:46;;;;;;;10.05;2.47;;;;;;;;;;5060723;28;25095;-74
2023/09/19 00:03:13;;;;;;;11.52;2.28;;;;;;;;;;5062854;28;25067;-74
2023/09/19 00:05:39;;;;;;;7.38;1.88;;;;;;;;;;5049887;28;25093;-67
2023/09/19 00:08:05;;;;;;;10.15;2.38;;;;;;;;;;5060943;28;25084;-73
2023/09/19 00:10:34;;;;;;;7.28;1.95;;;;;;;;;;5042285;28;25080;-70
2023/09/19 00:13:05;;;;;;;4.18;1.98;;;;;;;;;;5064200;28;25093;-71
2023/09/19 00:15:31;;;;;;;12.70;2.38;;;;;;;;;;5054512;28;25160;-70
2023/09/19 00:17:57;;;;;;;11.10;2.20;;;;;;;;;;5066675;28;25065;-73
2023/09/19 00:20:24;;;;;;;9.32;2.20;;;;;;;;;;5058588;28;25094;-72
2023/09/19 00:22:53;;;;;;;6.47;1.58;;;;;;;;;;5065479;28;25148;-73
2023/09/19 00:25:20;;;;;;;9.30;2.22;;;;;;;;;;5046939;28;25051;-73
2023/09/19 00:27:47;;;;;;;9.15;1.88;;;;;;;;;;5053003;28;25176;-73
2023/09/19 00:30:15;;;;;;;6.43;1.83;;;;;;;;;;5062516;28;25091;-73
2023/09/19 00:32:42;;;;;;;5.65;1.95;;;;;;;;;;5064312;28;25136;-69
2023/09/19 00:35:10;;;;;;;6.63;1.90;;;;;;;;;;5065013;28;25054;-69
2023/09/19 00:37:37;;;;;;;8.52;1.65;;;;;;;;;;5065684;28;25110;-72
2023/09/19 00:40:05;;;;;;;7.53;1.45;;;;;;;;;;5070103;28;25050;-68
2023/09/19 00:42:33;;;;;;;4.68;1.88;;;;;;;;;;5069638;28;25051;-73
2023/09/19 00:44:59;;;;;;;8.07;1.83;;;;;;;;;;5068051;28;25184;-69
2023/09/19 00:47:25;;;;;;;12.07;2.47;;;;;;;;;;5066624;28;25073;-69
2023/09/19 00:49:52;;;;;;;10.38;2.60;;;;;;;;;;5052842;28;25134;-69
2023/09/19 00:52:23;;;;;;;9.20;2.90;;;;;;;;;;5076518;28;25111;-73
2023/09/19 00:54:50;;;;;;;11.05;2.17;;;;;;;;;;5075643;28;25057;-71
2023/09/19 00:57:17;;;;;;;7.82;2.17;;;;;;;;;;5045716;28;25111;-69
2023/09/19 00:59:43;;;;;;;8.75;2.20;;;;;;;;;;5061348;28;25081;-71
2023/09/19 01:02:10;;;;;;;5.03;2.03;;;;;;;;;;5064289;28;25097;-74
2023/09/19 01:04:36;;;;;;;7.80;1.70;;;;;;;;;;5056832;28;25059;-69
2023/09/19 01:07:03;;;;;;;5.40;2.03;;;;;;;;;;5060848;28;25106;-70
2023/09/19 01:09:29;;;;;;;12.43;2.85;;;;;;;;;;5063168;28;25069;-71
2023/09/19 01:11:59;;;;;;;9.40;2.72;;;;;;;;;;5069113;28;25060;-72
2023/09/19 01:14:31;;;;;;;10.95;2.35;;;;;;;;;;5062983;28;25098;-72
2023/09/19 01:17:04;;;;;;;11.35;2.58;;;;;;;;;;5072689;28;25078;-69
2023/09/19 01:19:54;;;;;;;9.50;2.45;;;;;;;;;;5075198;28;25077;-70
2023/09/19 01:22:33;;;;;;;10.60;2.47;;;;;;;;;;5063823;28;25095;-70
2023/09/19 01:25:02;;;;;;;7.75;2.25;;;;;;;;;;5064475;28;25076;-70
2023/09/19 01:27:43;;;;;;;13.02;2.40;;;;;;;;;;5047146;28;25059;-69
2023/09/19 01:30:18;;;;;;;15.73;2.65;;;;;;;;;;5053684;28;25139;-69
2023/09/19 01:32:46;;;;;;;15.63;2.80;;;;;;;;;;5088689;28;25067;-72
2023/09/19 01:35:14;;;;;;;11.00;2.40;;;;;;;;;;5081191;28;25065;-69
2023/09/19 01:37:43;;;;;;;11.73;2.42;;;;;;;;;;5084960;28;25108;-73
2023/09/19 01:40:11;;;;;;;15.93;2.85;;;;;;;;;;5082259;28;25044;-71
2023/09/19 01:42:59;;;;;;;15.32;2.20;;;;;;;;;;5090509;28;25074;-72
2023/09/19 01:45:26;;;;;;;12.45;2.47;;;;;;;;;;5059042;28;25055;-72
2023/09/19 01:47:55;;;;;;;11.95;2.47;;;;;;;;;;5064290;28;25069;-70
2023/09/19 01:50:27;;;;;;;11.15;2.67;;;;;;;;;;5059306;28;25063;-70
2023/09/19 01:53:04;;;;;;;14.60;2.35;;;;;;;;;;5062887;28;25098;-73
2023/09/19 01:55:31;;;;;;;16.13;3.05;;;;;;;;;;5064260;28;25052;-75
2023/09/19 01:58:08;;;;;;;16.83;3.17;;;;;;;;;;5067765;28;25075;-70
2023/09/19 02:00:36;;;;;;;11.55;2.50;;;;;;;;;;5059682;28;25118;-71
2023/09/19 02:03:03;;;;;;;11.05;2.47;;;;;;;;;;5046321;28;25070;-70
2023/09/19 02:05:29;;;;;;;11.18;2.10;;;;;;;;;;5060067;28;25161;-73
2023/09/19 02:07:56;;;;;;;12.40;2.92;;;;;;;;;;5061345;28;25072;-70
2023/09/19 02:10:23;;;;;;;8.57;2.88;;;;;;;;;;5069164;28;25122;-73
2023/09/19 02:12:48;;;;;;;11.45;2.67;;;;;;;;;;5059758;28;25047;-72
2023/09/19 02:15:15;;;;;;;10.65;3.08;;;;;;;;;;5063321;28;25083;-72
2023/09/19 02:17:43;;;;;;;6.68;2.00;;;;;;;;;;5070983;28;25070;-70
2023/09/19 02:20:14;;;;;;;13.90;2.70;;;;;;;;;;5066051;28;25119;-70
2023/09/19 02:22:41;;;;;;;10.07;2.30;;;;;;;;;;5063870;28;25055;-71
2023/09/19 02:25:08;;;;;;;13.75;2.90;;;;;;;;;;5060172;28;25123;-70
2023/09/19 02:27:34;;;;;;;8.95;2.85;;;;;;;;;;5062189;28;25048;-69
2023/09/19 02:30:04;;;;;;;16.30;2.67;;;;;;;;;;5061084;28;25066;-73
2023/09/19 02:32:31;;;;;;;12.68;3.00;;;;;;;;;;5038768;28;25082;-73
2023/09/19 02:35:00;;;;;;;9.30;2.47;;;;;;;;;;5059610;28;25062;-71
2023/09/19 02:37:26;;;;;;;11.60;2.25;;;;;;;;;;5069555;28;25104;-71
2023/09/19 02:39:52;;;;;;;13.10;3.00;;;;;;;;;;5046860;28;25085;-69
2023/09/19 02:42:18;;;;;;;10.95;2.80;;;;;;;;;;5064395;28;25148;-71
2023/09/19 02:44:46;;;;;;;9.38;2.65;;;;;;;;;;5063491;28;25051;-71
2023/09/19 02:47:14;;;;;;;8.88;2.85;;;;;;;;;;5062788;28;25090;-71
2023/09/19 02:49:42;;;;;;;7.90;2.30;;;;;;;;;;5063512;28;25062;-71
2023/09/19 02:52:08;;;;;;;11.05;2.58;;;;;;;;;;5064259;28;25173;-71
2023/09/19 02:54:34;;;;;;;8.43;2.15;;;;;;;;;;5041699;28;25079;-71
2023/09/19 02:57:00;;;;;;;11.45;2.72;;;;;;;;;;5064994;28;25061;-71
2023/09/19 02:59:28;;;;;;;12.70;2.90;;;;;;;;;;5069126;28;25069;-71
2023/09/19 03:01:54;;;;;;;17.88;2.97;;;;;;;;;;5070108;28;25061;-73
2023/09/19 03:04:20;;;;;;;14.65;2.85;;;;;;;;;;5065440;28;25154;-73
2023/09/19 03:06:48;;;;;;;14.77;2.65;;;;;;;;;;5064142;28;25075;-71
2023/09/19 03:09:15;;;;;;;16.05;2.63;;;;;;;;;;5040522;28;25084;-71
2023/09/19 03:11:42;;;;;;;13.57;2.20;;;;;;;;;;5065965;28;25056;-71
2023/09/19 03:14:09;;;;;;;6.82;2.72;;;;;;;;;;5047495;28;25056;-75
2023/09/19 03:16:37;;;;;;;18.55;2.67;;;;;;;;;;5062715;28;25092;-70
2023/09/19 03:19:03;;;;;;;13.30;3.78;;;;;;;;;;5066109;28;25050;-72
2023/09/19 03:21:30;;;;;;;11.50;2.58;;;;;;;;;;5063551;28;25048;-73
2023/09/19 03:23:56;;;;;;;11.57;3.03;;;;;;;;;;5063786;28;25134;-74
2023/09/19 03:26:22;;;;;;;13.77;2.75;;;;;;;;;;5066406;28;25088;-71
2023/09/19 03:28:48;;;;;;;12.50;3.20;;;;;;;;;;5085818;28;25081;-69
2023/09/19 03:31:14;;;;;;;13.80;2.83;;;;;;;;;;5088254;28;25090;-71
2023/09/19 03:33:40;;;;;;;13.23;2.70;;;;;;;;;;5078092;28;25053;-72
2023/09/19 03:36:07;;;;;;;12.40;2.67;;;;;;;;;;5075785;28;25135;-73
2023/09/19 03:38:34;;;;;;;11.07;2.92;;;;;;;;;;5072422;28;25068;-70
2023/09/19 03:41:00;;;;;;;11.13;2.38;;;;;;;;;;5071880;28;25058;-75
2023/09/19 03:43:26;;;;;;;9.38;2.25;;;;;;;;;;5063428;28;25058;-70
2023/09/19 03:45:54;;;;;;;9.30;2.30;;;;;;;;;;5070117;28;25054;-71
2023/09/19 03:48:21;;;;;;;11.05;2.80;;;;;;;;;;5070725;28;25089;-69
2023/09/19 03:50:47;;;;;;;9.98;2.75;;;;;;;;;;5072840;28;25091;-71
2023/09/19 03:53:14;;;;;;;11.68;2.15;;;;;;;;;;5072261;28;25096;-71
2023/09/19 03:55:40;;;;;;;17.88;3.17;;;;;;;;;;5064696;28;25069;-70
2023/09/19 03:58:06;;;;;;;9.38;2.75;;;;;;;;;;5063659;28;25063;-76
2023/09/19 04:00:32;;;;;;;13.10;2.67;;;;;;;;;;5065798;28;25051;-74
2023/09/19 04:02:58;;;;;;;10.57;3.03;;;;;;;;;;5066194;28;25063;-71
2023/09/19 04:05:24;;;;;;;12.25;3.63;;;;;;;;;;5047078;28;25070;-73
2023/09/19 04:07:50;;;;;;;15.45;2.78;;;;;;;;;;5066429;28;25062;-73
2023/09/19 04:10:17;;;;;;;12.77;2.53;;;;;;;;;;5063640;28;25059;-73
2023/09/19 04:12:53;;;;;;;10.70;2.47;;;;;;;;;;5060421;28;25050;-69
2023/09/19 04:15:19;;;;;;;18.90;2.83;;;;;;;;;;5065101;28;25066;-71
2023/09/19 04:17:45;;;;;;;11.80;2.30;;;;;;;;;;5069559;28;25091;-68
2023/09/19 04:20:12;;;;;;;17.77;2.58;;;;;;;;;;5071605;28;25073;-72
2023/09/19 04:22:39;;;;;;;13.32;2.42;;;;;;;;;;5063978;28;25056;-73
2023/09/19 04:25:08;;;;;;;12.50;2.72;;;;;;;;;;5067022;28;25079;-73
2023/09/19 04:27:34;;;;;;;12.50;3.45;;;;;;;;;;5073343;28;25074;-73
2023/09/19 04:30:04;;;;;;;9.57;2.85;;;;;;;;;;5076000;28;25079;-71
2023/09/19 04:32:32;;;;;;;12.15;2.95;;;;;;;;;;5074204;28;25070;-74
2023/09/19 04:35:00;;;;;;;13.45;2.88;;;;;;;;;;5077033;28;25056;-71
2023/09/19 04:37:26;;;;;;;9.88;2.22;;;;;;;;;;5059644;28;25169;-70
2023/09/19 04:39:52;;;;;;;18.52;3.10;;;;;;;;;;5060777;28;25048;-72
2023/09/19 04:42:18;;;;;;;12.25;2.65;;;;;;;;;;5060733;28;25070;-75
2023/09/19 04:44:45;;;;;;;9.65;2.58;;;;;;;;;;5066824;28;25072;-73
2023/09/19 04:47:12;;;;;;;13.45;2.92;;;;;;;;;;5068353;28;25064;-71
2023/09/19 04:49:39;;;;;;;11.68;2.53;;;;;;;;;;5053076;28;25073;-72
2023/09/19 04:52:06;;;;;;;14.10;2.83;;;;;;;;;;5062209;28;25093;-71
2023/09/19 04:54:33;;;;;;;13.05;3.13;;;;;;;;;;5063547;28;25091;-71
2023/09/19 04:57:03;;;;;;;18.33;2.90;;;;;;;;;;5044762;28;25128;-74
2023/09/19 04:59:29;;;;;;;10.38;2.58;;;;;;;;;;5043944;28;25058;-74
2023/09/19 05:01:55;;;;;;;15.05;3.35;;;;;;;;;;5047133;28;25129;-73
2023/09/19 05:04:22;;;;;;;18.30;3.95;;;;;;;;;;5066629;28;25071;-71
2023/09/19 05:06:48;;;;;;;17.08;3.33;;;;;;;;;;5058656;28;25047;-74
2023/09/19 05:09:15;;;;;;;14.07;3.03;;;;;;;;;;5065131;28;25070;-71
2023/09/19 05:11:41;;;;;;;8.88;2.67;;;;;;;;;;5046812;28;25085;-71
2023/09/19 05:14:07;;;;;;;14.38;3.17;;;;;;;;;;5062590;28;25096;-74
2023/09/19 05:16:34;;;;;;;11.25;2.72;;;;;;;;;;5062608;28;25084;-71
2023/09/19 05:19:00;;;;;;;10.57;2.97;;;;;;;;;;5059389;28;25059;-69
2023/09/19 05:21:30;;;;;;;14.77;2.50;;;;;;;;;;5038304;28;25051;-69
2023/09/19 05:23:56;;;;;;;13.15;3.60;;;;;;;;;;5059129;28;25068;-71
2023/09/19 05:26:22;;;;;;;20.45;3.35;;;;;;;;;;5058345;28;25145;-70
2023/09/19 05:28:48;;;;;;;10.73;2.67;;;;;;;;;;5060556;28;25099;-72
2023/09/19 05:31:15;;;;;;;12.73;2.88;;;;;;;;;;5054913;28;25155;-73
2023/09/19 05:33:42;;;;;;;11.90;2.83;;;;;;;;;;5060202;28;25077;-72
2023/09/19 05:36:10;;;;;;;15.05;3.05;;;;;;;;;;5057925;28;25075;-69
2023/09/19 05:38:36;;;;;;;17.55;3.70;;;;;;;;;;5037690;28;25090;-74
2023/09/19 05:41:03;;;;;;;11.23;2.58;;;;;;;;;;5058400;28;25101;-70
2023/09/19 05:43:30;;;;;;;15.88;3.10;;;;;;;;;;5056722;28;25094;-73
2023/09/19 05:45:56;;;;;;;11.98;2.88;;;;;;;;;;5053395;28;25053;-70
2023/09/19 05:48:22;;;;;;;16.13;3.45;;;;;;;;;;5061767;28;25080;-75
2023/09/19 05:50:51;;;;;;;8.85;2.40;;;;;;;;;;5054570;28;25099;-69
2023/09/19 05:53:18;;;;;;;20.27;4.57;;;;;;;;;;5057666;28;25058;-73
2023/09/19 05:55:45;;;;;;;10.27;2.67;;;;;;;;;;5059840;28;25067;-72
2023/09/19 05:58:13;;;;;;;17.42;3.10;;;;;;;;;;5061600;28;25123;-71
2023/09/19 06:00:41;;;;;;;15.02;3.03;;;;;;;;;;5064061;28;25046;-70
2023/09/19 06:03:07;;;;;;;15.65;2.97;;;;;;;;;;5062072;28;25068;-70
2023/09/19 06:05:33;;;;;;;19.98;3.13;;;;;;;;;;5064912;28;25052;-73
2023/09/19 06:07:59;;;;;;;17.73;3.03;;;;;;;;;;5042125;28;25062;-72
2023/09/19 06:10:25;;;;;;;13.80;2.85;;;;;;;;;;5060593;28;25063;-72
2023/09/19 06:12:53;;;;;;;18.92;3.58;;;;;;;;;;5065602;28;25143;-71
2023/09/19 06:15:19;;;;;;;26.00;4.80;;;;;;;;;;5058937;28;25094;-71
2023/09/19 06:17:48;;;;;;;11.68;2.88;;;;;;;;;;5046088;28;25154;-73
2023/09/19 06:20:15;;;;;;;11.02;2.38;;;;;;;;;;5045144;28;25144;-72
2023/09/19 06:22:42;;;;;;;15.13;3.17;;;;;;;;;;5057430;28;25077;-70
2023/09/19 06:25:11;;;;;;;16.63;3.47;;;;;;;;;;5061745;28;25084;-70
2023/09/19 06:27:37;;;;;;;16.10;3.33;;;;;;;;;;5053855;28;25100;-71
2023/09/19 06:30:05;;;;;;;14.05;2.70;;;;;;;;;;5070960;28;25166;-71
2023/09/19 06:32:40;;;;;;;17.10;3.03;;;;;;;;;;5058404;28;25067;-72
2023/09/19 06:35:11;;;;;;;10.85;2.95;;;;;;;;;;5049102;28;25129;-73
2023/09/19 06:37:38;;;;;;;15.05;2.70;;;;;;;;;;5063463;28;25074;-72
2023/09/19 06:40:05;;;;;;;20.40;3.22;;;;;;;;;;5061587;28;25054;-72
2023/09/19 06:42:32;;;;;;;15.45;2.95;;;;;;;;;;5064786;28;25135;-71
2023/09/19 06:44:58;;;;;;;12.25;2.83;;;;;;;;;;5065093;28;25052;-72
2023/09/19 06:47:25;;;;;;;16.60;2.90;;;;;;;;;;5061774;28;25074;-71
2023/09/19 06:49:51;;;;;;;14.63;3.35;;;;;;;;;;5068719;28;25080;-71
2023/09/19 06:52:22;;;;;;;13.68;2.95;;;;;;;;;;5064860;28;25133;-69
2023/09/19 06:54:50;;;;;;;15.32;3.55;;;;;;;;;;5041197;28;25159;-71
2023/09/19 06:57:16;;;;;;;20.67;3.08;;;;;;;;;;5065287;28;25065;-75
2023/09/19 06:59:42;;;;;;;14.20;3.38;;;;;;;;;;5062771;28;25061;-71
2023/09/19 07:02:08;;;;;;;19.25;4.03;;;;;;;;;;5063921;28;25090;-70
2023/09/19 07:04:35;;;;;;;15.38;3.28;;;;;;;;;;5064057;28;25065;-70
2023/09/19 07:07:01;;;;;;;16.23;3.30;;;;;;;;;;5063258;28;25082;-74
2023/09/19 07:09:27;;;;;;;14.18;2.83;;;;;;;;;;5063249;28;25091;-74
2023/09/19 07:11:53;;;;;;;18.85;3.95;;;;;;;;;;5067221;28;25080;-72
2023/09/19 07:14:19;;;;;;;20.30;3.88;;;;;;;;;;5065677;28;25062;-70
2023/09/19 07:16:47;;;;;;;15.13;3.63;;;;;;;;;;5065795;28;25142;-69
2023/09/19 07:19:15;;;;;;;14.35;3.40;;;;;;;;;;5064576;28;25071;-73
2023/09/19 07:21:42;;;;;;;15.98;3.17;;;;;;;;;;5061672;28;25082;-70
2023/09/19 07:24:08;;;;;;;21.33;3.30;;;;;;;;;;5060343;28;25166;-73
2023/09/19 07:26:34;;;;;;;16.35;2.42;;;;;;;;;;5061931;28;25064;-69
2023/09/19 07:29:03;;;;;;;15.57;3.45;;;;;;;;;;5047620;28;25074;-73
2023/09/19 07:31:30;;;;;;;13.65;2.90;;;;;;;;;;5065886;28;25126;-72
2023/09/19 07:33:56;;;;;;;12.07;2.80;;;;;;;;;;5061945;28;25156;-71
2023/09/19 07:36:24;;;;;;;12.65;2.55;;;;;;;;;;5046530;28;25083;-73
2023/09/19 07:38:50;;;;;;;15.95;2.92;;;;;;;;;;5061000;28;25057;-70
2023/09/19 07:41:16;;;;;;;20.25;3.63;;;;;;;;;;5064807;28;25062;-72
2023/09/19 07:43:43;;;;;;;17.60;3.35;;;;;;;;;;5063635;28;25061;-73
2023/09/19 07:46:09;;;;;;;15.55;3.47;;;;;;;;;;5067574;28;25054;-71
2023/09/19 07:48:36;;;;;;;10.90;2.65;;;;;;;;;;5062035;28;25055;-73
2023/09/19 07:51:06;;;;;;;14.75;3.35;;;;;;;;;;5063281;28;25062;-72
2023/09/19 07:53:36;;;;;;;15.15;3.00;;;;;;;;;;5064778;28;25053;-70
2023/09/19 07:56:03;;;;;;;15.43;3.13;;;;;;;;;;5065800;28;25144;-71
2023/09/19 07:58:29;;;;;;;14.73;3.65;;;;;;;;;;5043384;28;25053;-72
2023/09/19 08:00:55;;;;;;;14.15;3.03;;;;;;;;;;5062979;28;25072;-71
2023/09/19 08:03:22;;;;;;;16.15;3.45;;;;;;;;;;5066401;28;25053;-71
2023/09/19 08:05:48;;;;;;;11.50;3.38;;;;;;;;;;5065086;28;25100;-74
2023/09/19 08:08:14;;;;;;;14.43;3.42;;;;;;;;;;5065789;28;25072;-70
2023/09/19 08:10:42;;;;;;;15.27;3.33;;;;;;;;;;5065931;28;25066;-73
2023/09/19 08:13:13;;;;;;;16.05;3.60;;;;;;;;;;5065507;28;25071;-72
2023/09/19 08:15:44;;;;;;;14.60;3.22;;;;;;;;;;5068097;28;25061;-72
2023/09/19 08:18:13;;;;;;;11.88;2.95;;;;;;;;;;5063437;28;25065;-69
2023/09/19 08:20:39;;;;;;;15.63;3.10;;;;;;;;;;5062611;28;25091;-71
2023/09/19 08:23:05;;;;;;;11.52;2.60;;;;;;;;;;5058921;28;25065;-73
2023/09/19 08:25:31;;;;;;;20.52;3.22;;;;;;;;;;5065996;28;25084;-72
2023/09/19 08:27:59;;;;;;;10.65;3.13;;;;;;;;;;5044849;28;25157;-69
2023/09/19 08:30:27;;;;;;;20.73;3.20;;;;;;;;;;5064809;28;25134;-68
2023/09/19 08:33:04;;;;;;;14.73;3.25;;;;;;;;;;5068630;28;25066;-70
2023/09/19 08:35:30;;;;;;;15.93;3.35;;;;;;;;;;5069160;28;25085;-71
2023/09/19 08:37:57;;;;;;;12.23;3.25;;;;;;;;;;5051267;28;25126;-70
2023/09/19 08:40:23;;;;;;;18.83;4.13;;;;;;;;;;5062918;28;25072;-73
2023/09/19 08:42:50;;;;;;;18.60;3.55;;;;;;;;;;5054807;28;25131;-69
2023/09/19 08:45:16;;;;;;;11.00;3.33;;;;;;;;;;5064223;28;25075;-70
2023/09/19 08:47:48;;;;;;;17.52;4.57;;;;;;;;;;5045013;28;25083;-74
2023/09/19 08:50:19;;;;;;;14.88;3.42;;;;;;;;;;5065522;28;25082;-72
2023/09/19 08:52:47;;;;;;;18.10;3.57;;;;;;;;;;5079188;28;25061;-73
2023/09/19 08:55:20;;;;;;;17.10;2.85;;;;;;;;;;5064361;28;25105;-68
2023/09/19 08:57:48;;;;;;;17.08;3.55;;;;;;;;;;5079435;28;25507;-74
2023/09/19 09:00:17;;;;;;;38.60;3.83;;;;;;;;;;5086280;28;25067;-72
2023/09/19 09:02:43;;;;;;;15.70;3.05;;;;;;;;;;5083344;28;25059;-70
2023/09/19 09:05:10;;;;;;;12.82;3.45;;;;;;;;;;5055463;28;25073;-70
2023/09/19 09:07:40;;;;;;;16.35;2.72;;;;;;;;;;5035348;28;25097;-72
2023/09/19 09:10:07;;;;;;;16.95;3.58;;;;;;;;;;5064902;28;25060;-68
2023/09/19 09:12:33;;;;;;;18.92;3.40;;;;;;;;;;5066065;28;25062;-69
2023/09/19 09:15:00;;;;;;;14.57;3.25;;;;;;;;;;5066068;28;25115;-74
2023/09/19 09:17:26;;;;;;;22.73;3.50;;;;;;;;;;5065318;28;25074;-73
2023/09/19 09:19:53;;;;;;;14.05;3.20;;;;;;;;;;5060765;28;25083;-73
2023/09/19 09:22:21;;;;;;;19.98;2.70;;;;;;;;;;5065348;28;25057;-73
2023/09/19 09:25:04;;;;;;;11.63;2.97;;;;;;;;;;5064925;28;25049;-72
2023/09/19 09:27:32;;;;;;;16.85;3.25;;;;;;;;;;5058317;28;25069;-70
2023/09/19 09:29:58;;;;;;;16.10;3.70;;;;;;;;;;5062582;28;25089;-71
2023/09/19 09:32:36;;;;;;;14.18;3.50;;;;;;;;;;5046864;28;25091;-73
2023/09/19 09:35:05;;;;;;;7.45;3.10;;;;;;;;;;5063132;28;25160;-71
2023/09/19 09:37:31;;;;;;;19.48;3.70;;;;;;;;;;5047661;28;25102;-72
2023/09/19 09:39:58;;;;;;;13.05;2.72;;;;;;;;;;5064875;28;25095;-70
2023/09/19 09:42:39;;;;;;;13.68;2.45;;;;;;;;;;5043865;28;25141;-69
2023/09/19 09:45:17;;;;;;;13.85;3.95;;;;;;;;;;5058228;28;25136;-71
2023/09/19 09:47:54;;;;;;;13.68;3.45;;;;;;;;;;5062384;28;25147;-71
2023/09/19 09:50:44;;;;;;;14.70;2.13;;;;;;;;;;5054437;28;25154;-68
2023/09/19 09:53:31;;;;;;;12.10;3.03;;;;;;;;;;5061040;28;25075;-71
2023/09/19 09:56:07;;;;;;;8.95;2.60;;;;;;;;;;5062141;28;25080;-71
2023/09/19 09:58:35;;;;;;;10.45;2.45;;;;;;;;;;5064703;28;25046;-72
2023/09/19 10:01:14;;;;;;;8.13;2.50;;;;;;;;;;5050842;28;25060;-70
2023/09/19 10:03:47;;;;;;;7.78;2.30;;;;;;;;;;5063395;28;25098;-73
2023/09/19 10:06:27;;;;;;;10.75;2.30;;;;;;;;;;5064284;28;25099;-72
2023/09/19 10:11:32;;;;;;;16.75;2.80;;;;;;;;;;5069713;28;25111;-71
2023/09/19 10:14:01;;;;;;;8.40;2.85;;;;;;;;;;5070390;28;25076;-71
2023/09/19 10:16:30;;;;;;;8.60;2.92;;;;;;;;;;5067393;28;25146;-67
2023/09/19 10:18:59;;;;;;;17.30;2.47;;;;;;;;;;5050150;28;25141;-69
2023/09/19 10:21:29;;;;;;;7.03;1.98;;;;;;;;;;5057791;28;25073;-72
2023/09/19 10:23:56;;;;;;;10.68;2.40;;;;;;;;;;5064909;28;25047;-74
2023/09/19 10:26:24;;;;;;;8.32;2.40;;;;;;;;;;5071080;28;25060;-73
2023/09/19 10:28:50;;;;;;;9.80;2.38;;;;;;;;;;5061439;28;25106;-70
2023/09/19 10:31:19;;;;;;;13.88;1.98;;;;;;;;;;5064197;28;25068;-72
2023/09/19 10:33:46;;;;;;;5.78;1.60;;;;;;;;;;5066090;28;25076;-71
2023/09/19 10:36:12;;;;;;;14.77;2.40;;;;;;;;;;5061627;28;25062;-70
2023/09/19 10:38:40;;;;;;;8.75;1.95;;;;;;;;;;5078528;28;25052;-70
2023/09/19 10:41:07;;;;;;;7.40;2.33;;;;;;;;;;5061634;28;25095;-69
2023/09/19 10:43:34;;;;;;;10.02;2.03;;;;;;;;;;5058565;28;25059;-72
2023/09/19 10:46:13;;;;;;;11.57;2.45;;;;;;;;;;5061004;28;25073;-75
2023/09/19 10:48:40;;;;;;;11.82;2.50;;;;;;;;;;5077655;28;25068;-71
2023/09/19 10:51:15;;;;;;;6.00;1.50;;;;;;;;;;5070318;28;25072;-71
2023/09/19 10:53:50;;;;;;;7.60;1.85;;;;;;;;;;5059306;28;25071;-69
2023/09/19 10:56:41;;;;;;;11.00;2.08;;;;;;;;;;5085638;28;25122;-71
2023/09/19 10:59:09;;;;;;;7.03;1.73;;;;;;;;;;5065587;28;25052;-70
2023/09/19 11:01:51;;;;;;;6.75;1.90;;;;;;;;;;5063116;28;25152;-72
2023/09/19 11:04:22;;;;;;;5.80;1.52;;;;;;;;;;5076280;28;25076;-72
2023/09/19 11:07:08;;;;;;;5.90;1.30;;;;;;;;;;5065144;28;25061;-71
2023/09/19 11:09:54;;;;;;;6.82;1.38;;;;;;;;;;5063748;28;25049;-72
2023/09/19 11:12:35;;;;;;;8.80;1.60;;;;;;;;;;5049869;28;25077;-71
2023/09/19 11:15:07;;;;;;;7.20;1.48;;;;;;;;;;5059585;28;25071;-70
2023/09/19 11:17:37;;;;;;;6.38;1.30;;;;;;;;;;5049663;28;25067;-72
2023/09/19 11:22:53;;;;;;;4.20;1.50;;;;;;;;;;5075722;28;25072;-74
2023/09/19 11:25:34;;;;;;;6.55;1.52;;;;;;;;;;5082849;28;25065;-73
2023/09/19 11:28:05;;;;;;;7.60;1.85;;;;;;;;;;5084472;28;25102;-75
2023/09/19 11:30:37;;;;;;;6.60;1.40;;;;;;;;;;5071556;28;25066;-74
2023/09/19 11:33:20;;;;;;;6.20;1.58;;;;;;;;;;5050037;28;25082;-72
2023/09/19 11:36:05;;;;;;;5.55;1.52;;;;;;;;;;5066283;28;25098;-73
2023/09/19 11:38:49;;;;;;;6.43;1.35;;;;;;;;;;5050480;28;25056;-75
2023/09/19 11:41:31;;;;;;;4.43;1.35;;;;;;;;;;5070055;28;25151;-73
2023/09/19 11:44:06;;;;;;;2.88;1.20;;;;;;;;;;5068048;28;25077;-72
2023/09/19 11:46:55;;;;;;;13.05;1.60;;;;;;;;;;5063518;28;25078;-71
2023/09/19 11:49:29;;;;;;;7.78;1.40;;;;;;;;;;5063777;28;25073;-70
2023/09/19 11:51:57;;;;;;;7.18;1.52;;;;;;;;;;5057523;28;25083;-69
2023/09/19 11:54:24;;;;;;;7.13;1.58;;;;;;;;;;5051642;28;25153;-72
2023/09/19 11:56:51;;;;;;;5.72;1.23;;;;;;;;;;5046757;28;25094;-71
2023/09/19 11:59:24;;;;;;;9.25;2.83;;;;;;;;;;5067609;28;25103;-70
2023/09/19 12:01:57;;;;;;;13.27;2.47;;;;;;;;;;5072791;28;25074;-73
2023/09/19 12:04:37;;;;;;;5.75;1.50;;;;;;;;;;5068110;28;25126;-72
2023/09/19 12:07:04;;;;;;;5.05;1.75;;;;;;;;;;5038982;28;25069;-71
2023/09/19 12:09:30;;;;;;;6.72;1.50;;;;;;;;;;5045662;28;25165;-71
2023/09/19 12:11:57;;;;;;;7.55;1.70;;;;;;;;;;5073938;28;25122;-70
2023/09/19 12:14:27;;;;;;;8.95;1.38;;;;;;;;;;5062668;28;25085;-71
2023/09/19 12:16:56;;;;;;;6.03;1.38;;;;;;;;;;5071622;28;25063;-69
2023/09/19 12:19:23;;;;;;;6.20;1.70;;;;;;;;;;5069345;28;25053;-71
2023/09/19 12:22:05;;;;;;;7.55;1.45;;;;;;;;;;5069439;28;25144;-72
2023/09/19 12:24:31;;;;;;;6.45;1.67;;;;;;;;;;5059719;28;25079;-70
2023/09/19 12:27:01;;;;;;;6.15;1.23;;;;;;;;;;5047426;28;25097;-71
2023/09/19 12:29:29;;;;;;;4.90;1.42;;;;;;;;;;5060593;28;25153;-70
2023/09/19 12:32:03;;;;;;;7.07;1.60;;;;;;;;;;5059578;28;25053;-72
2023/09/19 12:34:34;;;;;;;4.55;1.77;;;;;;;;;;5067861;28;25075;-70
2023/09/19 12:37:15;;;;;;;5.10;1.10;;;;;;;;;;5064715;28;25055;-72
2023/09/19 12:39:42;;;;;;;8.32;1.73;;;;;;;;;;5059139;28;25067;-70
2023/09/19 12:42:10;;;;;;;5.28;1.45;;;;;;;;;;5039397;28;25141;-72
2023/09/19 12:44:41;;;;;;;3.83;1.08;;;;;;;;;;5056572;28;25132;-70
2023/09/19 12:47:11;;;;;;;5.88;1.73;;;;;;;;;;5062660;28;25061;-74
2023/09/19 12:49:37;;;;;;;6.00;1.15;;;;;;;;;;5069177;28;25094;-70
2023/09/19 12:52:03;;;;;;;3.65;1.20;;;;;;;;;;5064017;28;25078;-71
2023/09/19 12:54:39;;;;;;;9.20;1.40;;;;;;;;;;5077560;28;25130;-72
2023/09/19 12:57:05;;;;;;;3.05;1.30;;;;;;;;;;5079706;28;25058;-72
2023/09/19 12:59:32;;;;;;;7.82;1.90;;;;;;;;;;5063790;28;25166;-75
2023/09/19 13:02:07;;;;;;;8.00;1.27;;;;;;;;;;5063260;28;25066;-68
2023/09/19 13:04:34;;;;;;;2.63;0.95;;;;;;;;;;5042923;28;25091;-69
2023/09/19 13:07:01;;;;;;;7.03;1.58;;;;;;;;;;5048196;28;25056;-73
2023/09/19 13:09:38;;;;;;;5.95;1.17;;;;;;;;;;5067033;28;25122;-75
2023/09/19 13:12:09;;;;;;;6.53;1.30;;;;;;;;;;5068059;28;25055;-73
2023/09/19 13:14:40;;;;;;;6.70;1.63;;;;;;;;;;5076298;28;25056;-74
2023/09/19 13:17:20;;;;;;;4.40;2.03;;;;;;;;;;5068599;28;25067;-74
2023/09/19 13:19:54;;;;;;;3.30;1.27;;;;;;;;;;5065950;28;25094;-75
2023/09/19 13:22:39;;;;;;;5.60;1.58;;;;;;;;;;5066410;28;25069;-74
2023/09/19 13:25:24;;;;;;;4.50;1.30;;;;;;;;;;5061753;28;25072;-72
2023/09/19 13:27:56;;;;;;;5.68;1.48;;;;;;;;;;5066562;28;25044;-77
2023/09/19 13:30:26;;;;;;;8.23;1.25;;;;;;;;;;5062642;28;25093;-74
2023/09/19 13:32:53;;;;;;;6.10;1.63;;;;;;;;;;5042494;28;25081;-70
2023/09/19 13:35:19;;;;;;;5.97;1.42;;;;;;;;;;5046510;28;25077;-74
2023/09/19 13:37:51;;;;;;;4.18;1.58;;;;;;;;;;5069892;28;25088;-71
2023/09/19 13:40:17;;;;;;;10.30;2.28;;;;;;;;;;5047678;28;25054;-73
2023/09/19 13:42:44;;;;;;;7.72;1.90;;;;;;;;;;5076727;28;25082;-71
2023/09/19 13:45:12;;;;;;;5.32;1.65;;;;;;;;;;5059480;28;25068;-71
2023/09/19 13:47:38;;;;;;;12.63;2.25;;;;;;;;;;5068634;28;25145;-72
2023/09/19 13:50:04;;;;;;;9.65;2.10;;;;;;;;;;5081519;28;25057;-72
2023/09/19 13:52:31;;;;;;;5.80;1.77;;;;;;;;;;5071213;28;25075;-72
2023/09/19 13:54:57;;;;;;;6.05;1.35;;;;;;;;;;5045600;28;25058;-72
2023/09/19 13:57:23;;;;;;;7.80;2.00;;;;;;;;;;5064531;28;25098;-71
2023/09/19 13:59:49;;;;;;;6.60;1.80;;;;;;;;;;5064985;28;24714;-74
2023/09/19 14:02:18;;;;;;;11.07;2.65;;;;;;;;;;5054039;28;25056;-73
2023/09/19 14:04:44;;;;;;;9.32;1.85;;;;;;;;;;5063267;28;25079;-74
2023/09/19 14:07:10;;;;;;;6.55;2.40;;;;;;;;;;5045489;28;25067;-73
2023/09/19 14:09:36;;;;;;;12.13;3.45;;;;;;;;;;5067798;28;25052;-70
2023/09/19 14:12:02;;;;;;;6.85;1.80;;;;;;;;;;5063785;28;25066;-71
2023/09/19 14:14:29;;;;;;;9.73;2.70;;;;;;;;;;5057762;28;25054;-71
2023/09/19 14:16:55;;;;;;;7.18;1.77;;;;;;;;;;5064605;28;25074;-73
2023/09/19 14:19:21;;;;;;;5.75;1.90;;;;;;;;;;5071709;28;25152;-73
2023/09/19 14:21:47;;;;;;;9.43;2.70;;;;;;;;;;5061000;28;25117;-73
2023/09/19 14:24:19;;;;;;;12.48;2.15;;;;;;;;;;5064744;28;25080;-75
2023/09/19 14:26:45;;;;;;;;;;;;;;;;;;5050226;28;25116;-76
2023/09/19 14:29:13;;;;;;;10.68;2.40;;;;;;;;;;5075682;28;24116;-72
2023/09/19 14:31:39;;;;;;;6.03;1.88;;;;;;;;;;5075512;28;25063;-73
2023/09/19 14:34:06;;;;;;;8.32;2.28;;;;;;;;;;5056851;28;25048;-72
2023/09/19 14:36:33;;;;;;;5.55;1.80;;;;;;;;;;5076524;28;25059;-71
2023/09/19 14:38:59;;;;;;;5.82;2.10;;;;;;;;;;5057257;28;25054;-70
2023/09/19 14:41:25;;;;;;;6.43;2.67;;;;;;;;;;5072836;28;25125;-71
2023/09/19 14:43:57;;;;;;;9.23;2.05;;;;;;;;;;5070560;28;25062;-70
2023/09/19 14:46:26;;;;;;;5.97;1.80;;;;;;;;;;5068966;28;25055;-75
2023/09/19 14:48:53;;;;;;;6.32;2.03;;;;;;;;;;5068311;28;25078;-74
2023/09/19 14:51:19;;;;;;;8.18;2.05;;;;;;;;;;5045063;28;25068;-71